Loves Park, Illinois
Current Conditions -  °F | °C
As of 4:54 PM on Saturday 25 Oct 2014 (Local Time) from KRFD Reporting Station
Clear Clear  
Wind Chill: 68°   Ceiling: Unl
Heat Index: 68°   Visibility: 10mi
Dew Point: 29°   Wind: 16mph
Humidity: 23%   Direction: 310°NW
Pressure: 29.96"   Gusts: 26mph
Location:  42.32°N, 89.06°W
Report Text: KRFD 252154Z 31014G23KT 10SM CLR 20/M02 A2996 RMK AO2 PK WND 29027/2056 SLP143 T02001017
Loading
Personal Weather Stations






























Interactive Weather Map
Tropical Storm Tracking
New forecast layout! Learn more

10-Day Weather Forecast

Advertisements
Track Severe Weather on mobile